Time;durP1;ratioP1;P1;durP2;ratioP2;P2;SDS_P1;SDS_P2;PMS_P1;PMS_P2;Temp;Humidity;BMP_temperature;BMP_pressure;BME280_temperature;BME280_humidity;BME280_pressure;Samples;Min_cycle;Max_cycle;Signal;HPM_P1;HPM_P2
2023/04/30 00:01:28;;;;;;;6.95;5.68;;;;;;;20.89;58.45;100929.13;5053754;28;20049;-55
2023/04/30 00:03:56;;;;;;;7.50;5.25;;;;;;;20.89;58.17;100929.13;5054128;28;20045;-56
2023/04/30 00:06:24;;;;;;;7.55;5.88;;;;;;;20.89;58.37;100929.13;5053656;28;20045;-56
2023/04/30 00:08:54;;;;;;;6.50;5.82;;;;;;;20.90;58.21;100933.50;5045477;28;20038;-56
2023/04/30 00:11:21;;;;;;;8.15;5.50;;;;;;;20.89;58.33;100929.13;5033423;28;20033;-55
2023/04/30 00:13:49;;;;;;;7.00;5.65;;;;;;;20.89;58.30;100937.19;5033576;28;20063;-56
2023/04/30 00:16:17;;;;;;;6.10;5.32;;;;;;;20.88;58.22;100936.34;5033308;28;20056;-56
2023/04/30 00:18:44;;;;;;;6.78;5.70;;;;;;;20.88;58.22;100932.81;5033837;28;20408;-56
2023/04/30 00:21:12;;;;;;;7.10;6.03;;;;;;;20.88;58.15;100927.44;5033371;28;20092;-54
2023/04/30 00:23:39;;;;;;;5.97;5.38;;;;;;;20.89;58.19;100929.13;5033469;28;20049;-54
2023/04/30 00:26:06;;;;;;;8.02;5.30;;;;;;;20.88;58.20;100930.13;5033955;28;20045;-54
2023/04/30 00:28:35;;;;;;;7.38;5.70;;;;;;;20.87;58.17;100929.28;5032433;28;20060;-54
2023/04/30 00:31:05;;;;;;;6.82;6.13;;;;;;;20.87;58.14;100920.34;5033563;28;20053;-56
2023/04/30 00:33:32;;;;;;;7.55;6.13;;;;;;;20.87;58.33;100921.22;5033567;28;20045;-56
2023/04/30 00:36:00;;;;;;;6.30;5.45;;;;;;;20.88;58.15;100922.06;5033754;28;20041;-56
2023/04/30 00:38:28;;;;;;;6.47;5.43;;;;;;;20.87;58.06;100914.97;5032115;28;20499;-56
2023/04/30 00:40:55;;;;;;;7.00;5.60;;;;;;;20.86;58.03;100914.09;5033475;28;20046;-56
2023/04/30 00:43:23;;;;;;;7.70;6.35;;;;;;;20.87;58.07;100917.66;5033343;28;20483;-56
2023/04/30 00:45:50;;;;;;;7.15;5.50;;;;;;;20.87;57.86;100909.59;5034254;28;20052;-56
2023/04/30 00:48:18;;;;;;;7.60;6.25;;;;;;;20.86;58.04;100908.72;5031868;28;20061;-55
2023/04/30 00:50:45;;;;;;;7.25;5.47;;;;;;;20.86;57.98;100908.72;5032027;28;20527;-56
2023/04/30 00:53:13;;;;;;;5.78;5.18;;;;;;;20.87;58.09;100920.34;5031869;28;20061;-55
2023/04/30 00:55:41;;;;;;;7.53;5.82;;;;;;;20.86;58.02;100913.25;5033535;28;20042;-55
2023/04/30 00:58:08;;;;;;;7.93;6.05;;;;;;;20.86;58.08;100913.25;5032861;28;20053;-56
2023/04/30 01:00:35;;;;;;;9.05;6.07;;;;;;;20.85;57.91;100909.72;5032952;28;20105;-54
2023/04/30 01:03:03;;;;;;;6.68;5.25;;;;;;;20.85;57.91;100912.41;5037341;28;20384;-54
2023/04/30 01:05:30;;;;;;;7.63;5.93;;;;;;;20.85;58.00;100915.09;5037049;28;20057;-53
2023/04/30 01:07:57;;;;;;;7.30;5.90;;;;;;;20.86;57.91;100914.09;5048055;28;20383;-53
2023/04/30 01:10:47;;;;;;;7.22;5.53;;;;;;;20.85;57.93;100907.03;5043195;28;20072;-56
2023/04/30 01:13:18;;;;;;;6.57;5.40;;;;;;;20.85;57.93;100919.63;5035621;28;20053;-56
2023/04/30 01:16:14;;;;;;;8.68;5.57;;;;;;;20.85;57.94;100911.56;5036727;28;20054;-55
2023/04/30 01:18:47;;;;;;;6.78;5.32;;;;;;;20.86;57.79;100910.56;5035639;28;20053;-55
2023/04/30 01:21:18;;;;;;;6.10;4.75;;;;;;;20.87;57.87;100918.50;5035725;28;20363;-55
2023/04/30 01:24:14;;;;;;;5.90;5.13;;;;;;;20.88;57.79;100919.34;5037218;28;20052;-55
2023/04/30 01:27:20;;;;;;;8.98;5.03;;;;;;;20.87;57.85;100915.81;5035917;28;20052;-56
2023/04/30 01:29:49;;;;;;;7.55;5.40;;;;;;;20.87;57.65;100921.22;5034609;28;20046;-55
2023/04/30 01:32:16;;;;;;;7.22;4.80;;;;;;;20.87;57.79;100917.66;5036213;28;20052;-56
2023/04/30 01:34:44;;;;;;;5.78;4.78;;;;;;;20.86;57.78;100919.47;5035716;28;20054;-55
2023/04/30 01:37:40;;;;;;;7.65;5.20;;;;;;;20.85;57.82;100923.16;5036138;28;20042;-56
2023/04/30 01:40:19;;;;;;;6.40;5.80;;;;;;;20.85;57.73;100923.16;5034946;28;20057;-55
2023/04/30 01:43:16;;;;;;;5.97;4.95;;;;;;;20.85;57.76;100925.00;5036297;28;20045;-54
2023/04/30 01:46:04;;;;;;;5.28;4.75;;;;;;;20.86;57.83;100932.94;5036459;28;20056;-54
2023/04/30 01:48:52;;;;;;;9.15;6.03;;;;;;;20.86;57.78;100934.78;5036615;28;20847;-54
2023/04/30 01:51:29;;;;;;;6.25;5.65;;;;;;;20.86;57.79;100945.53;5036380;28;20400;-55
2023/04/30 01:54:02;;;;;;;7.97;5.20;;;;;;;20.85;57.89;100943.84;5042413;28;20053;-55
2023/04/30 01:56:40;;;;;;;8.48;5.88;;;;;;;20.85;57.73;100944.69;5055552;28;20048;-55
2023/04/30 01:59:09;;;;;;;7.00;5.07;;;;;;;20.84;57.63;100943.00;5054621;28;20399;-55
2023/04/30 02:01:36;;;;;;;6.88;4.90;;;;;;;20.84;57.61;100936.78;5054991;28;20053;-54
2023/04/30 02:04:03;;;;;;;5.72;4.90;;;;;;;20.83;57.64;100927.84;5056312;28;20044;-53
2023/04/30 02:06:32;;;;;;;5.63;4.82;;;;;;;20.84;57.73;100934.94;5055292;28;20056;-54
2023/04/30 02:09:04;;;;;;;6.10;4.88;;;;;;;20.84;57.60;100934.09;5056026;28;20045;-54
2023/04/30 02:11:31;;;;;;;7.15;5.55;;;;;;;20.83;57.63;100933.22;5041791;28;20048;-54
2023/04/30 02:13:59;;;;;;;6.45;5.55;;;;;;;20.84;57.46;100928.69;5034230;28;20060;-53
2023/04/30 02:16:26;;;;;;;5.97;5.22;;;;;;;20.83;57.44;100927.00;5034912;28;20049;-54
2023/04/30 02:18:54;;;;;;;6.25;5.13;;;;;;;20.83;57.44;100929.69;5035848;28;20046;-54
2023/04/30 02:21:21;;;;;;;8.13;4.65;;;;;;;20.84;57.39;100926.00;5034983;28;20061;-55
2023/04/30 02:23:49;;;;;;;6.20;4.45;;;;;;;20.82;57.40;100928.81;5035738;28;20045;-56
2023/04/30 02:26:16;;;;;;;6.05;5.05;;;;;;;20.83;57.15;100938.63;5035772;28;20049;-55
2023/04/30 02:28:43;;;;;;;5.63;4.93;;;;;;;20.83;57.14;100940.47;5035777;28;20053;-56
2023/04/30 02:31:10;;;;;;;4.97;4.10;;;;;;;20.82;57.01;100927.97;5036183;28;20037;-56
2023/04/30 02:33:38;;;;;;;5.10;4.60;;;;;;;20.82;57.20;100931.50;5034389;28;20049;-56
2023/04/30 02:36:05;;;;;;;5.88;4.45;;;;;;;20.83;57.21;100937.78;5034572;28;20092;-55
2023/04/30 02:38:33;;;;;;;6.70;5.35;;;;;;;20.82;57.09;100928.81;5034763;28;20475;-56
2023/04/30 02:41:01;;;;;;;5.05;4.30;;;;;;;20.83;57.05;100932.38;5034372;28;20050;-54
2023/04/30 02:43:28;;;;;;;7.07;4.50;;;;;;;20.82;57.01;100939.59;5035091;28;20056;-53
2023/04/30 02:45:55;;;;;;;5.07;4.05;;;;;;;20.83;56.88;100945.84;5035330;28;20503;-54
2023/04/30 02:48:23;;;;;;;4.82;3.63;;;;;;;20.82;56.94;100947.66;5035173;28;20379;-53
2023/04/30 02:50:50;;;;;;;5.75;4.35;;;;;;;20.82;57.01;100944.97;5035262;28;20049;-54
2023/04/30 02:53:18;;;;;;;6.18;4.35;;;;;;;20.81;56.93;100943.28;5033754;28;20053;-53
2023/04/30 02:55:45;;;;;;;6.63;4.93;;;;;;;20.80;56.96;100938.88;5033722;28;20052;-54
2023/04/30 02:58:12;;;;;;;6.38;4.90;;;;;;;20.80;56.87;100938.88;5033388;28;20053;-53
2023/04/30 03:00:40;;;;;;;6.65;4.47;;;;;;;20.80;56.93;100936.19;5035076;28;20045;-55
2023/04/30 03:03:07;;;;;;;6.22;4.78;;;;;;;20.80;57.00;100932.66;5033552;28;20054;-55
2023/04/30 03:05:35;;;;;;;8.18;4.53;;;;;;;20.80;57.05;100938.03;5033323;28;20064;-55
2023/04/30 03:08:02;;;;;;;5.65;4.10;;;;;;;20.80;57.07;100936.19;5037685;28;20064;-55
2023/04/30 03:10:30;;;;;;;5.90;4.85;;;;;;;20.81;57.03;100939.72;5054162;28;20502;-53
2023/04/30 03:12:57;;;;;;;4.82;4.28;;;;;;;20.80;56.93;100935.34;5037314;28;20480;-54
2023/04/30 03:15:24;;;;;;;6.40;4.78;;;;;;;20.79;56.95;100934.50;5033601;28;20075;-54
2023/04/30 03:17:52;;;;;;;5.15;4.53;;;;;;;20.79;56.94;100939.88;5034547;28;20045;-54
2023/04/30 03:20:19;;;;;;;5.40;4.32;;;;;;;20.79;56.93;100941.72;5033902;28;20053;-53
2023/04/30 03:22:46;;;;;;;7.60;5.20;;;;;;;20.78;57.03;100938.16;5034765;28;20042;-54
2023/04/30 03:25:14;;;;;;;6.10;4.65;;;;;;;20.78;56.94;100938.16;5033511;28;20056;-53
2023/04/30 03:27:41;;;;;;;5.18;4.35;;;;;;;20.78;56.83;100940.00;5034545;28;20116;-53
2023/04/30 03:30:09;;;;;;;6.88;5.20;;;;;;;20.79;56.92;100952.50;5034453;28;20049;-55
2023/04/30 03:32:37;;;;;;;6.72;4.72;;;;;;;20.78;56.90;100937.31;5033090;28;20045;-56
2023/04/30 03:35:05;;;;;;;5.80;4.82;;;;;;;20.77;56.78;100941.84;5034863;28;20053;-55
2023/04/30 03:37:33;;;;;;;5.40;4.65;;;;;;;20.77;56.81;100936.47;5033689;28;20045;-56
2023/04/30 03:40:00;;;;;;;4.57;4.18;;;;;;;20.77;56.83;100944.53;5034317;28;20053;-56
2023/04/30 03:42:27;;;;;;;5.47;4.72;;;;;;;20.77;56.67;100941.84;5034559;28;20037;-56
2023/04/30 03:44:55;;;;;;;7.03;4.60;;;;;;;20.77;56.71;100943.69;5033042;28;20060;-55
2023/04/30 03:47:23;;;;;;;5.28;4.70;;;;;;;20.76;56.82;100945.53;5032820;28;20053;-55
2023/04/30 03:49:53;;;;;;;6.03;4.30;;;;;;;20.77;56.71;100943.69;5034487;28;20404;-54
2023/04/30 03:52:22;;;;;;;4.75;4.25;;;;;;;20.77;56.65;100941.00;5032911;28;20385;-54
2023/04/30 03:54:50;;;;;;;5.70;4.38;;;;;;;20.77;56.73;100949.06;5042870;28;20053;-54
2023/04/30 03:57:18;;;;;;;6.13;4.78;;;;;;;20.76;56.78;100940.16;5052657;28;20056;-54
2023/04/30 03:59:46;;;;;;;5.65;4.30;;;;;;;20.75;56.47;100949.22;5052827;28;20449;-53
2023/04/30 04:02:14;;;;;;;6.63;4.30;;;;;;;20.75;56.76;100949.22;5053737;28;20498;-54
2023/04/30 04:04:42;;;;;;;4.75;4.20;;;;;;;20.75;56.63;100954.59;5053313;28;20052;-53
2023/04/30 04:07:10;;;;;;;5.53;4.47;;;;;;;20.74;56.60;100964.53;5052040;28;20064;-54
2023/04/30 04:09:37;;;;;;;5.95;4.47;;;;;;;20.75;56.77;100962.69;5053177;28;20053;-54
2023/04/30 04:12:05;;;;;;;7.72;5.15;;;;;;;20.74;56.71;100967.22;5051507;28;20049;-54
2023/04/30 04:14:33;;;;;;;7.32;4.90;;;;;;;20.74;56.81;100974.41;5030823;28;20510;-53
2023/04/30 04:17:01;;;;;;;6.45;5.18;;;;;;;20.73;56.79;100970.88;5032298;28;20057;-54
2023/04/30 04:19:29;;;;;;;10.27;5.15;;;;;;;20.74;56.80;100979.78;5033597;28;20508;-56
2023/04/30 04:21:57;;;;;;;7.30;5.10;;;;;;;20.74;56.84;100982.47;5032418;28;20403;-56
2023/04/30 04:24:25;;;;;;;6.32;4.82;;;;;;;20.74;56.79;100977.97;5032470;28;20072;-56
2023/04/30 04:26:52;;;;;;;6.55;4.95;;;;;;;20.74;56.87;100983.34;5032842;28;20049;-55
2023/04/30 04:29:20;;;;;;;7.78;5.50;;;;;;;20.74;56.85;100983.34;5032859;28;20052;-55
2023/04/30 04:31:49;;;;;;;7.07;4.55;;;;;;;20.74;56.87;100986.03;5031936;28;20065;-56
2023/04/30 04:34:18;;;;;;;6.00;5.38;;;;;;;20.73;56.83;100981.63;5032713;28;20058;-56
2023/04/30 04:36:46;;;;;;;7.80;4.80;;;;;;;20.74;56.88;100994.13;5032776;28;20053;-55
2023/04/30 04:39:14;;;;;;;6.80;4.90;;;;;;;20.74;56.89;101001.31;5032129;28;20052;-56
2023/04/30 04:41:41;;;;;;;6.82;4.80;;;;;;;20.72;56.88;100998.75;5032188;28;20057;-54
2023/04/30 04:44:08;;;;;;;6.65;5.63;;;;;;;20.74;56.95;101006.69;5032285;28;20053;-54
2023/04/30 04:46:41;;;;;;;8.38;5.18;;;;;;;20.73;56.82;101002.31;5031768;28;20065;-55
2023/04/30 04:49:08;;;;;;;6.60;5.27;;;;;;;20.72;56.99;100998.75;5033352;28;20053;-55
2023/04/30 04:51:36;;;;;;;6.82;5.00;;;;;;;20.72;56.80;101006.84;5032201;28;20060;-55
2023/04/30 04:54:03;;;;;;;5.47;4.88;;;;;;;20.72;57.04;101008.69;5033823;28;20045;-56
2023/04/30 04:56:30;;;;;;;6.60;5.20;;;;;;;20.72;56.89;101004.16;5031808;28;20050;-55
2023/04/30 04:58:58;;;;;;;8.38;5.70;;;;;;;20.72;57.04;101012.22;5031477;28;20054;-56
2023/04/30 05:01:25;;;;;;;6.15;5.07;;;;;;;20.72;56.89;101006.84;5033121;28;20057;-55
2023/04/30 05:03:53;;;;;;;8.70;6.18;;;;;;;20.72;56.93;101009.53;5031975;28;20129;-56
2023/04/30 05:06:21;;;;;;;8.18;5.60;;;;;;;20.72;56.94;101006.84;5031717;28;20049;-55
2023/04/30 05:08:49;;;;;;;6.78;4.72;;;;;;;20.72;57.02;101004.16;5035203;28;20056;-55
2023/04/30 05:11:16;;;;;;;6.63;5.30;;;;;;;20.72;57.00;101001.47;5052873;28;20040;-55
2023/04/30 05:13:44;;;;;;;5.65;5.00;;;;;;;20.72;56.99;101012.22;5045520;28;20058;-55
2023/04/30 05:16:11;;;;;;;7.90;5.72;;;;;;;20.72;56.91;101008.69;5032052;28;20049;-55
2023/04/30 05:18:38;;;;;;;6.50;5.63;;;;;;;20.71;56.99;101005.13;5032946;28;20053;-55
2023/04/30 05:21:05;;;;;;;6.35;5.00;;;;;;;20.72;57.03;101003.31;5033432;28;20053;-56
2023/04/30 05:23:33;;;;;;;7.30;5.63;;;;;;;20.71;57.09;101005.13;5032601;28;20045;-56
2023/04/30 05:26:01;;;;;;;7.35;5.47;;;;;;;20.72;57.04;101008.69;5032629;28;20054;-56
2023/04/30 05:28:28;;;;;;;6.97;5.50;;;;;;;20.72;57.13;101012.22;5032614;28;20050;-56
2023/04/30 05:30:55;;;;;;;8.02;5.82;;;;;;;20.72;57.01;101011.38;5033077;28;20045;-55
2023/04/30 05:33:23;;;;;;;7.68;5.95;;;;;;;20.71;57.20;101007.84;5032834;28;20044;-55
2023/04/30 05:35:50;;;;;;;7.90;5.45;;;;;;;20.71;57.28;101002.44;5032727;28;20502;-55
2023/04/30 05:38:17;;;;;;;7.70;6.10;;;;;;;20.73;57.14;101005.00;5032845;28;20045;-56
2023/04/30 05:40:44;;;;;;;7.15;5.68;;;;;;;20.72;57.22;100997.91;5032967;28;20049;-54
2023/04/30 05:43:12;;;;;;;6.72;4.88;;;;;;;20.71;57.23;100999.75;5032249;28;20046;-54
2023/04/30 05:45:39;;;;;;;6.90;5.82;;;;;;;20.72;57.21;101003.31;5032544;28;20045;-55
2023/04/30 05:48:06;;;;;;;5.78;5.00;;;;;;;20.71;57.30;100999.75;5034891;28;20049;-54
2023/04/30 05:50:34;;;;;;;6.88;5.53;;;;;;;20.71;57.20;101002.44;5036334;28;20483;-54
2023/04/30 05:53:01;;;;;;;7.90;5.55;;;;;;;20.72;57.34;101003.31;5036616;28;20053;-54
2023/04/30 05:55:28;;;;;;;6.20;5.15;;;;;;;20.71;57.32;100996.22;5041375;28;20529;-54
2023/04/30 05:57:56;;;;;;;7.85;5.70;;;;;;;20.71;57.36;101001.59;5056147;28;20052;-54
2023/04/30 06:00:23;;;;;;;6.18;4.97;;;;;;;20.71;57.41;101004.28;5056574;28;20052;-55
2023/04/30 06:02:51;;;;;;;6.03;4.68;;;;;;;20.71;57.36;101002.44;5056112;28;20041;-55
2023/04/30 06:05:19;;;;;;;6.18;5.30;;;;;;;20.71;57.52;101002.44;5055975;28;20045;-55
2023/04/30 06:07:46;;;;;;;6.57;4.90;;;;;;;20.71;57.44;101002.44;5038841;28;20053;-55
2023/04/30 06:10:14;;;;;;;6.85;4.95;;;;;;;20.71;57.55;101001.59;5055920;28;20045;-55
2023/04/30 06:12:41;;;;;;;5.50;4.47;;;;;;;20.71;57.44;101002.44;5055500;28;20044;-55
2023/04/30 06:15:09;;;;;;;5.85;4.43;;;;;;;20.71;57.59;100998.91;5045816;28;20456;-55
2023/04/30 06:17:36;;;;;;;7.00;5.07;;;;;;;20.71;57.57;100999.75;5035005;28;20045;-54
2023/04/30 06:20:05;;;;;;;7.60;5.28;;;;;;;20.72;57.64;100997.91;5035783;28;20072;-53
2023/04/30 06:22:33;;;;;;;7.07;4.97;;;;;;;20.71;57.61;101004.28;5035710;28;20060;-54
2023/04/30 06:25:00;;;;;;;6.60;5.00;;;;;;;20.71;57.47;101006.97;5036016;28;20068;-53
2023/04/30 06:27:28;;;;;;;5.15;4.32;;;;;;;20.72;57.52;101004.16;5035373;28;20049;-54
2023/04/30 06:29:55;;;;;;;4.60;3.95;;;;;;;20.72;57.74;101004.16;5034613;28;20361;-54
2023/04/30 06:32:25;;;;;;;6.60;5.10;;;;;;;20.73;57.73;101013.06;5035495;28;20395;-54
2023/04/30 06:34:54;;;;;;;6.95;5.65;;;;;;;20.74;57.69;101017.44;5034281;28;20068;-54
2023/04/30 06:37:22;;;;;;;7.25;5.20;;;;;;;20.73;57.67;101013.91;5035823;28;20056;-54
2023/04/30 06:39:50;;;;;;;6.13;4.32;;;;;;;20.73;57.82;101016.59;5035523;28;20471;-54
2023/04/30 06:42:17;;;;;;;6.32;4.72;;;;;;;20.73;57.85;101013.91;5035763;28;20045;-54
2023/04/30 06:44:46;;;;;;;6.25;4.78;;;;;;;20.73;57.92;101011.22;5035433;28;20041;-54
2023/04/30 06:47:13;;;;;;;7.53;4.93;;;;;;;20.73;57.99;101015.75;5035418;28;20056;-54
2023/04/30 06:49:40;;;;;;;7.72;4.97;;;;;;;20.72;57.92;101019.44;5035693;28;20072;-56
2023/04/30 06:52:07;;;;;;;5.63;4.30;;;;;;;20.73;57.90;101013.91;5035275;28;20463;-56
2023/04/30 06:54:35;;;;;;;6.40;4.95;;;;;;;20.73;57.91;101015.75;5034101;28;20045;-56
2023/04/30 06:57:02;;;;;;;6.45;4.38;;;;;;;20.73;57.93;101016.59;5035202;28;20049;-56
2023/04/30 06:59:30;;;;;;;6.47;4.78;;;;;;;20.73;57.85;101023.81;5033953;28;20060;-54
2023/04/30 07:01:57;;;;;;;5.68;4.35;;;;;;;20.73;57.97;101016.59;5035172;28;20045;-54
2023/04/30 07:04:25;;;;;;;7.55;4.97;;;;;;;20.73;58.07;101027.38;5035271;28;20049;-54
2023/04/30 07:06:52;;;;;;;6.13;4.78;;;;;;;20.72;58.06;101027.50;5034885;28;20049;-55
2023/04/30 07:09:19;;;;;;;7.38;4.88;;;;;;;20.73;57.92;101030.06;5033269;28;20057;-55
2023/04/30 07:11:47;;;;;;;7.13;4.50;;;;;;;20.72;58.10;101025.66;5053192;28;20402;-55
2023/04/30 07:14:14;;;;;;;5.65;4.38;;;;;;;20.72;58.01;101036.44;5054732;28;20482;-54
2023/04/30 07:16:41;;;;;;;6.13;5.13;;;;;;;20.73;58.06;101038.13;5040527;28;20041;-54
2023/04/30 07:19:08;;;;;;;6.18;4.68;;;;;;;20.73;58.11;101035.44;5034206;28;20060;-56
2023/04/30 07:21:37;;;;;;;6.95;5.07;;;;;;;20.74;58.14;101037.16;5035037;28;20053;-55
2023/04/30 07:24:04;;;;;;;7.93;4.45;;;;;;;20.74;58.03;101039.84;5034859;28;20360;-55
2023/04/30 07:26:32;;;;;;;6.60;4.78;;;;;;;20.74;58.16;101039.84;5033488;28;20046;-55
2023/04/30 07:28:59;;;;;;;5.80;4.57;;;;;;;20.76;58.19;101044.25;5034446;28;20054;-55
2023/04/30 07:31:27;;;;;;;8.13;5.07;;;;;;;20.77;58.13;101045.94;5034331;28;20060;-57
2023/04/30 07:33:54;;;;;;;8.77;5.82;;;;;;;20.77;58.03;101036.03;5033994;28;20472;-57
2023/04/30 07:36:22;;;;;;;4.80;4.18;;;;;;;20.77;58.10;101045.94;5034346;28;20045;-57
2023/04/30 07:38:49;;;;;;;6.35;4.45;;;;;;;20.78;58.12;101045.78;5034320;28;20050;-57
2023/04/30 07:41:16;;;;;;;6.72;4.72;;;;;;;20.78;58.08;101040.41;5034458;28;20045;-55
2023/04/30 07:43:44;;;;;;;7.05;4.32;;;;;;;20.78;57.93;101047.63;5034422;28;20042;-54
2023/04/30 07:46:11;;;;;;;6.20;4.80;;;;;;;20.78;58.05;101044.94;5034176;28;20083;-56
2023/04/30 07:48:38;;;;;;;7.30;5.50;;;;;;;20.79;58.08;101041.28;5033847;28;20049;-56
2023/04/30 07:51:05;;;;;;;5.68;5.00;;;;;;;20.80;58.07;101035.75;5033746;28;20042;-57
2023/04/30 07:53:33;;;;;;;6.57;5.25;;;;;;;20.79;58.08;101025.97;5033910;28;20503;-56
2023/04/30 07:56:00;;;;;;;5.88;4.93;;;;;;;20.80;57.95;101034.91;5037855;28;20045;-57
2023/04/30 07:58:28;;;;;;;6.28;5.28;;;;;;;20.81;58.04;101032.06;5052718;28;20049;-57
2023/04/30 08:00:57;;;;;;;6.30;5.22;;;;;;;20.81;57.98;101042.81;5052488;28;20057;-57
2023/04/30 08:03:25;;;;;;;7.82;4.95;;;;;;;20.82;57.95;101038.28;5053692;28;20045;-56
2023/04/30 08:05:52;;;;;;;6.32;5.07;;;;;;;20.83;58.18;101040.03;5054022;28;20041;-57
2023/04/30 08:08:20;;;;;;;7.57;4.93;;;;;;;20.83;58.34;101043.56;5052456;28;20045;-56
2023/04/30 08:10:47;;;;;;;6.05;4.82;;;;;;;20.83;58.35;101040.03;5053348;28;20049;-55
2023/04/30 08:13:15;;;;;;;8.43;5.63;;;;;;;20.83;58.27;101042.72;5053388;28;20064;-56
2023/04/30 08:15:42;;;;;;;5.80;5.10;;;;;;;20.84;58.51;101039.03;5053881;28;20045;-55
2023/04/30 08:18:09;;;;;;;8.43;6.20;;;;;;;20.84;58.28;101036.34;5034488;28;20041;-55
2023/04/30 08:20:38;;;;;;;8.57;6.03;;;;;;;20.84;58.31;101037.19;5033309;28;20411;-56
2023/04/30 08:23:08;;;;;;;7.40;5.85;;;;;;;20.85;58.40;101040.72;5033647;28;20514;-56
2023/04/30 08:25:36;;;;;;;5.57;4.97;;;;;;;20.84;58.12;101037.19;5033204;28;20045;-56
2023/04/30 08:28:03;;;;;;;6.68;5.63;;;;;;;20.85;57.94;101043.41;5031786;28;20045;-54
2023/04/30 08:30:31;;;;;;;8.32;5.57;;;;;;;20.86;58.09;101032.50;5033589;28;20057;-57
2023/04/30 08:32:58;;;;;;;7.82;5.78;;;;;;;20.87;58.40;101044.16;5033457;28;20053;-57
2023/04/30 08:35:28;;;;;;;8.07;5.60;;;;;;;20.88;58.18;101045.84;5032756;28;20479;-57
2023/04/30 08:37:56;;;;;;;6.65;5.40;;;;;;;20.89;58.22;101039.47;5033971;28;20053;-57
2023/04/30 08:40:23;;;;;;;9.65;6.15;;;;;;;20.89;58.37;101037.63;5032878;28;20045;-55
2023/04/30 08:43:11;;;;;;;7.22;5.53;;;;;;;20.90;57.87;101038.47;5033338;28;20045;-55
2023/04/30 08:45:40;;;;;;;7.70;5.43;;;;;;;20.92;57.94;101041.88;5033442;28;20061;-55
2023/04/30 08:48:12;;;;;;;7.00;6.05;;;;;;;20.93;57.96;101040.88;5033625;28;20053;-55
2023/04/30 08:50:40;;;;;;;7.07;5.70;;;;;;;20.93;57.98;101040.88;5032948;28;20049;-57
2023/04/30 08:53:10;;;;;;;6.60;5.60;;;;;;;20.93;58.00;101039.03;5033020;28;20045;-57
2023/04/30 08:55:40;;;;;;;7.95;5.70;;;;;;;20.94;58.16;101034.50;5032326;28;20053;-57
2023/04/30 08:58:09;;;;;;;8.23;5.32;;;;;;;20.95;58.09;101036.22;5032429;28;20045;-57
2023/04/30 09:00:38;;;;;;;6.45;5.40;;;;;;;20.96;58.14;101032.53;5033168;28;20052;-56
2023/04/30 09:03:06;;;;;;;6.57;4.78;;;;;;;20.96;58.01;101044.16;5032422;28;20049;-56
2023/04/30 09:05:37;;;;;;;6.38;5.18;;;;;;;20.98;58.02;101031.44;5031859;28;20498;-56
2023/04/30 09:08:18;;;;;;;8.30;6.03;;;;;;;20.98;57.95;101039.50;5032501;28;20499;-55
2023/04/30 09:10:46;;;;;;;7.60;6.40;;;;;;;20.99;57.87;101046.59;5032433;28;20049;-57
2023/04/30 09:13:14;;;;;;;8.60;5.28;;;;;;;21.01;57.80;101043.75;5052144;28;20064;-58
2023/04/30 09:15:44;;;;;;;7.05;5.95;;;;;;;21.01;57.75;101046.44;5052307;28;20060;-57
2023/04/30 09:18:18;;;;;;;6.72;5.70;;;;;;;21.02;57.61;101042.75;5042070;28;20042;-57
2023/04/30 09:20:56;;;;;;;10.55;5.82;;;;;;;21.03;57.71;101039.09;5032752;28;20064;-57
2023/04/30 09:23:24;;;;;;;7.25;5.53;;;;;;;21.04;57.66;101034.56;5036156;28;20068;-57
2023/04/30 09:25:53;;;;;;;7.90;5.97;;;;;;;21.05;57.68;101028.16;5036718;28;20059;-57
2023/04/30 09:28:23;;;;;;;7.32;5.43;;;;;;;21.05;57.59;101028.16;5036499;28;20045;-57
2023/04/30 09:30:51;;;;;;;9.10;6.03;;;;;;;21.05;57.59;101033.56;5036644;28;20052;-57
2023/04/30 09:33:20;;;;;;;6.63;5.70;;;;;;;21.05;57.58;101036.25;5035137;28;20056;-57
2023/04/30 09:35:48;;;;;;;7.40;5.90;;;;;;;21.05;57.45;101037.09;5036430;28;20511;-57
2023/04/30 09:38:44;;;;;;;9.93;6.82;;;;;;;21.06;57.48;101027.19;5036900;28;20049;-56
2023/04/30 09:41:27;;;;;;;10.63;7.47;;;;;;;21.05;56.56;101026.31;5034129;28;20057;-57
2023/04/30 09:43:55;;;;;;;10.70;7.68;;;;;;;21.04;56.85;101021.09;5036564;28;20041;-57
2023/04/30 09:46:36;;;;;;;8.15;6.60;;;;;;;21.06;56.63;101019.09;5036337;28;20056;-57
2023/04/30 09:49:06;;;;;;;9.75;6.47;;;;;;;21.08;57.01;101022.53;5036692;28;20411;-57
2023/04/30 09:51:34;;;;;;;8.50;6.25;;;;;;;21.08;57.32;101020.69;5036312;28;20065;-57
2023/04/30 09:54:03;;;;;;;10.93;6.53;;;;;;;21.09;56.91;101022.38;5036043;28;20060;-57
2023/04/30 09:56:34;;;;;;;10.10;7.10;;;;;;;21.11;56.78;101019.56;5035740;28;20046;-56
2023/04/30 09:59:06;;;;;;;8.98;6.68;;;;;;;21.16;56.50;101017.28;5053951;28;20061;-56
2023/04/30 10:01:35;;;;;;;9.93;6.32;;;;;;;21.19;56.19;101020.56;5055562;28;20518;-56
2023/04/30 10:04:07;;;;;;;10.93;7.28;;;;;;;21.19;55.94;101020.56;5054809;28;20052;-56
2023/04/30 10:06:35;;;;;;;11.60;7.90;;;;;;;21.17;55.89;101011.75;5056099;28;20045;-56
2023/04/30 10:09:05;;;;;;;10.35;7.00;;;;;;;21.16;55.94;101010.06;5055765;28;20056;-56
2023/04/30 10:11:36;;;;;;;9.38;6.90;;;;;;;21.16;56.26;101015.44;5054732;28;20041;-55
2023/04/30 10:14:10;;;;;;;8.57;6.13;;;;;;;21.16;56.33;101012.75;5055065;28;20044;-56
2023/04/30 10:16:52;;;;;;;8.75;6.82;;;;;;;21.16;56.60;101004.69;5056092;28;20041;-56
2023/04/30 10:19:25;;;;;;;12.02;8.43;;;;;;;21.18;57.14;101013.44;5044779;28;20045;-57
2023/04/30 10:21:52;;;;;;;10.93;7.20;;;;;;;21.18;57.26;101009.91;5035386;28;20045;-57
2023/04/30 10:24:20;;;;;;;8.63;7.13;;;;;;;21.18;56.97;101007.22;5035481;28;20401;-57
2023/04/30 10:26:48;;;;;;;10.02;6.65;;;;;;;21.19;56.86;100995.47;5036129;28;20042;-56
2023/04/30 10:29:17;;;;;;;11.50;7.10;;;;;;;21.18;56.84;101002.69;5035788;28;20049;-56
2023/04/30 10:31:47;;;;;;;8.25;6.63;;;;;;;21.19;56.96;101000.88;5035349;28;20053;-57
2023/04/30 10:34:28;;;;;;;9.95;6.90;;;;;;;21.20;57.63;100999.88;5035393;28;20056;-56
2023/04/30 10:36:59;;;;;;;9.73;6.72;;;;;;;21.21;57.69;100988.09;5036158;28;20053;-55
2023/04/30 10:39:27;;;;;;;11.63;6.40;;;;;;;21.20;57.62;100987.25;5043646;28;20049;-55
2023/04/30 10:42:05;;;;;;;9.55;7.10;;;;;;;21.21;57.68;100997.03;5053938;28;20052;-57
2023/04/30 10:44:38;;;;;;;7.78;5.95;;;;;;;21.22;57.55;100984.41;5046192;28;20050;-57
2023/04/30 10:47:06;;;;;;;10.38;7.28;;;;;;;21.22;57.56;100984.41;5035418;28;20045;-57
2023/04/30 10:49:34;;;;;;;8.68;6.38;;;;;;;21.21;57.43;100986.25;5049327;28;20059;-56
2023/04/30 10:52:03;;;;;;;10.57;6.22;;;;;;;21.21;57.26;100985.41;5039578;28;20049;-57
2023/04/30 10:54:35;;;;;;;8.82;6.13;;;;;;;21.21;57.27;100977.31;5034915;28;20045;-57
2023/04/30 10:57:14;;;;;;;14.10;6.32;;;;;;;21.21;57.23;100980.88;5034917;28;20060;-57
2023/04/30 11:00:13;;;;;;;8.55;6.05;;;;;;;21.21;57.25;100982.72;5034049;28;20076;-55
2023/04/30 11:02:48;;;;;;;7.95;5.72;;;;;;;21.19;57.25;100982.03;5035034;28;20049;-56
2023/04/30 11:05:17;;;;;;;8.95;6.07;;;;;;;21.18;57.01;100967.69;5034787;28;20041;-56
2023/04/30 11:07:57;;;;;;;8.95;6.13;;;;;;;21.18;57.12;100967.69;5034646;28;20053;-56
2023/04/30 11:10:27;;;;;;;8.73;6.78;;;;;;;21.18;57.22;100967.69;5035169;28;20495;-55
2023/04/30 11:12:55;;;;;;;9.10;6.88;;;;;;;21.17;57.25;100966.00;5043519;28;20060;-55
2023/04/30 11:15:30;;;;;;;10.38;7.15;;;;;;;21.17;57.10;100966.00;5054497;28;20048;-55
2023/04/30 11:18:01;;;;;;;9.23;6.10;;;;;;;21.18;57.22;100967.69;5055091;28;20049;-56
2023/04/30 11:20:28;;;;;;;10.80;6.80;;;;;;;21.19;57.17;100969.41;5041953;28;20052;-56
2023/04/30 11:23:13;;;;;;;6.88;5.40;;;;;;;21.19;57.12;100972.09;5034135;28;20494;-57
2023/04/30 11:25:54;;;;;;;7.82;6.00;;;;;;;21.20;57.00;100971.09;5034321;28;20045;-57
2023/04/30 11:28:26;;;;;;;9.13;6.93;;;;;;;21.21;57.01;100966.56;5034684;28;20476;-57
2023/04/30 11:30:59;;;;;;;9.37;5.87;;;;;;;21.21;56.85;100963.88;5034483;28;20045;-56
2023/04/30 11:33:31;;;;;;;9.30;6.53;;;;;;;21.21;56.91;100962.03;5034349;28;20625;-56
2023/04/30 11:36:00;;;;;;;7.68;5.28;;;;;;;21.21;57.05;100962.03;5034603;28;20526;-56